Time,TemperatureF,DewpointF,PressureIn,WindDirection,WindDirectionDegrees,WindSpeedMPH,WindSpeedGustMPH,Humidity,HourlyPrecipIn,Conditions,Clouds,dailyrainin,SoftwareType,DateUTC
2013-02-23 00:20:00,-25.1,-31.9,29.41,East,90,2.2,-999.0,69,-99.99,,,0.00,Acu-Link.com,2013-02-23 09:20:00,
2013-02-23 00:35:00,-23.8,-30.4,29.39,East,90,0.0,-999.0,70,-99.99,,,0.00,Acu-Link.com,2013-02-23 09:35:00,
2013-02-23 00:51:00,-24.0,-30.6,29.39,East,90,0.0,-999.0,70,-99.99,,,0.00,Acu-Link.com,2013-02-23 09:51:00,
2013-02-23 01:06:00,-26.0,-33.0,29.39,North,0,1.1,-999.0,68,-99.99,,,0.00,Acu-Link.com,2013-02-23 10:06:00,
2013-02-23 01:21:00,-25.4,-32.2,29.38,North,0,0.0,-999.0,69,-99.99,,,0.00,Acu-Link.com,2013-02-23 10:21:00,
2013-02-23 01:37:00,-25.4,-31.9,29.38,North,0,3.2,-999.0,70,-99.99,,,0.00,Acu-Link.com,2013-02-23 10:37:00,
2013-02-23 01:52:00,-26.5,-33.5,29.38,North,0,0.0,-999.0,68,-99.99,,,0.00,Acu-Link.com,2013-02-23 10:52:00,
2013-02-23 02:08:00,-26.0,-32.7,29.37,North,0,0.0,-999.0,69,-99.99,,,0.00,Acu-Link.com,2013-02-23 11:08:00,
2013-02-23 02:23:00,-26.1,-32.8,29.36,North,0,1.7,-999.0,69,-99.99,,,0.00,Acu-Link.com,2013-02-23 11:23:00,
2013-02-23 02:38:00,-24.7,-31.2,29.35,North,0,2.2,-999.0,70,-99.99,,,0.00,Acu-Link.com,2013-02-23 11:38:00,
2013-02-23 02:53:00,-22.2,-28.3,29.34,North,0,2.7,-999.0,72,-99.99,,,0.00,Acu-Link.com,2013-02-23 11:53:00,
2013-02-23 03:09:00,-23.1,-29.7,29.34,North,0,2.2,-999.0,70,-99.99,,,0.00,Acu-Link.com,2013-02-23 12:09:00,
2013-02-23 03:24:00,-25.2,-32.2,29.34,North,0,0.0,-999.0,68,-99.99,,,0.00,Acu-Link.com,2013-02-23 12:24:00,
2013-02-23 03:39:00,-24.2,-30.7,29.33,North,0,0.0,-999.0,70,-99.99,,,0.00,Acu-Link.com,2013-02-23 12:39:00,
2013-02-23 03:54:00,-22.9,-29.2,29.33,North,0,3.2,-999.0,71,-99.99,,,0.00,Acu-Link.com,2013-02-23 12:54:00,
2013-02-23 04:09:00,-22.2,-28.6,29.32,North,0,4.2,-999.0,71,-99.99,,,0.00,Acu-Link.com,2013-02-23 13:09:00,
2013-02-23 04:25:00,-18.2,-23.9,29.31,North,0,7.3,-999.0,74,-99.99,,,0.00,Acu-Link.com,2013-02-23 13:25:00,
2013-02-23 04:40:00,-16.1,-21.9,29.30,NE,45,6.3,-999.0,74,-99.99,,,0.00,Acu-Link.com,2013-02-23 13:40:00,
2013-02-23 04:55:00,-13.7,-19.6,29.29,NNE,22,8.9,-999.0,74,-99.99,,,0.00,Acu-Link.com,2013-02-23 13:55:00,
2013-02-23 05:10:00,-13.0,-18.9,29.28,North,0,7.3,-999.0,74,-99.99,,,0.00,Acu-Link.com,2013-02-23 14:10:00,
2013-02-23 05:27:00,-13.5,-19.4,29.27,North,0,5.8,-999.0,74,-99.99,,,0.00,Acu-Link.com,2013-02-23 14:27:00,
2013-02-23 05:43:00,-13.5,-19.4,29.28,North,0,5.8,-999.0,74,-99.99,,,0.00,Acu-Link.com,2013-02-23 14:43:00,
2013-02-23 05:58:00,-13.7,-19.6,29.27,North,0,3.7,-999.0,74,-99.99,,,0.00,Acu-Link.com,2013-02-23 14:58:00,
2013-02-23 06:13:00,-13.7,-19.6,29.27,North,0,6.8,-999.0,74,-99.99,,,0.00,Acu-Link.com,2013-02-23 15:13:00,
2013-02-23 06:29:00,-13.5,-19.4,29.26,North,0,2.2,-999.0,74,-99.99,,,0.00,Acu-Link.com,2013-02-23 15:29:00,
2013-02-23 06:44:00,-14.8,-20.6,29.25,North,0,4.2,-999.0,74,-99.99,,,0.00,Acu-Link.com,2013-02-23 15:44:00,
2013-02-23 06:59:00,-15.7,-21.8,29.26,North,0,3.7,-999.0,73,-99.99,,,0.00,Acu-Link.com,2013-02-23 15:59:00,
2013-02-23 07:14:00,-16.2,-22.5,29.26,North,0,2.2,-999.0,72,-99.99,,,0.00,Acu-Link.com,2013-02-23 16:14:00,
2013-02-23 07:30:00,-18.2,-24.4,29.26,North,0,2.7,-999.0,72,-99.99,,,0.00,Acu-Link.com,2013-02-23 16:30:00,
2013-02-23 07:45:00,-18.9,-25.1,29.26,North,0,2.2,-999.0,72,-99.99,,,0.00,Acu-Link.com,2013-02-23 16:45:00,
2013-02-23 08:00:00,-19.8,-26.0,29.26,North,0,2.7,-999.0,72,-99.99,,,0.00,Acu-Link.com,2013-02-23 17:00:00,
2013-02-23 08:16:00,-16.8,-22.6,29.26,North,0,1.7,-999.0,74,-99.99,,,0.00,Acu-Link.com,2013-02-23 17:16:00,
2013-02-23 08:31:00,-18.0,-24.2,29.26,North,0,3.7,-999.0,72,-99.99,,,0.00,Acu-Link.com,2013-02-23 17:31:00,
2013-02-23 08:46:00,-15.9,-22.0,29.25,North,0,3.2,-999.0,73,-99.99,,,0.00,Acu-Link.com,2013-02-23 17:46:00,
2013-02-23 09:01:00,-14.8,-20.6,29.22,North,0,2.7,-999.0,74,-99.99,,,0.00,Acu-Link.com,2013-02-23 18:01:00,
2013-02-23 09:16:00,-17.5,-24.3,29.21,North,0,3.2,-999.0,70,-99.99,,,0.00,Acu-Link.com,2013-02-23 18:16:00,
2013-02-23 09:32:00,-16.8,-23.6,29.20,North,0,2.2,-999.0,70,-99.99,,,0.00,Acu-Link.com,2013-02-23 18:32:00,
2013-02-23 09:47:00,-15.3,-21.9,29.19,North,0,4.7,-999.0,71,-99.99,,,0.00,Acu-Link.com,2013-02-23 18:47:00,
2013-02-23 10:07:00,-14.8,-21.7,29.18,North,0,3.7,-999.0,70,-99.99,,,0.00,Acu-Link.com,2013-02-23 19:07:00,
2013-02-23 10:22:00,-12.1,-18.3,29.18,North,0,3.2,-999.0,73,-99.99,,,0.00,Acu-Link.com,2013-02-23 19:22:00,
2013-02-23 10:37:00,-11.2,-17.9,29.17,North,0,3.2,-999.0,71,-99.99,,,0.00,Acu-Link.com,2013-02-23 19:37:00,
2013-02-23 10:53:00,-9.9,-16.7,29.16,North,0,0.0,-999.0,71,-99.99,,,0.00,Acu-Link.com,2013-02-23 19:53:00,
2013-02-23 11:08:00,-9.9,-16.7,29.17,North,0,2.7,-999.0,71,-99.99,,,0.00,Acu-Link.com,2013-02-23 20:08:00,
2013-02-23 11:23:00,-8.5,-15.3,29.18,North,0,1.7,-999.0,71,-99.99,,,0.00,Acu-Link.com,2013-02-23 20:23:00,
2013-02-23 11:38:00,-9.0,-16.4,29.17,North,0,2.7,-999.0,69,-99.99,,,0.00,Acu-Link.com,2013-02-23 20:38:00,
2013-02-23 11:53:00,-6.9,-14.1,29.17,North,0,0.0,-999.0,70,-99.99,,,0.00,Acu-Link.com,2013-02-23 20:53:00,
2013-02-23 12:11:00,-5.1,-12.9,29.17,North,0,0.0,-999.0,68,-99.99,,,0.00,Acu-Link.com,2013-02-23 21:11:00,
2013-02-23 12:27:00,-3.5,-12.0,29.17,North,0,2.7,-999.0,66,-99.99,,,0.00,Acu-Link.com,2013-02-23 21:27:00,
2013-02-23 12:42:00,0.5,-8.5,29.17,North,0,4.7,-999.0,65,-99.99,,,0.00,Acu-Link.com,2013-02-23 21:42:00,
2013-02-23 12:57:00,3.0,-7.0,29.17,NNW,337,6.3,-999.0,62,-99.99,,,0.00,Acu-Link.com,2013-02-23 21:57:00,
2013-02-23 13:12:00,3.4,-7.0,29.16,North,0,8.3,-999.0,61,-99.99,,,0.00,Acu-Link.com,2013-02-23 22:12:00,
2013-02-23 13:27:00,3.7,-6.7,29.16,North,0,5.8,-999.0,61,-99.99,,,0.00,Acu-Link.com,2013-02-23 22:27:00,
2013-02-23 13:43:00,4.3,-6.5,29.15,North,0,2.2,-999.0,60,-99.99,,,0.00,Acu-Link.com,2013-02-23 22:43:00,
2013-02-23 13:58:00,5.5,-5.7,29.14,North,0,6.8,-999.0,59,-99.99,,,0.00,Acu-Link.com,2013-02-23 22:58:00,
2013-02-23 14:14:00,6.1,-4.8,29.14,NNE,22,6.3,-999.0,60,-99.99,,,0.00,Acu-Link.com,2013-02-23 23:14:00,
2013-02-23 14:30:00,5.9,-5.3,29.14,North,0,8.3,-999.0,59,-99.99,,,0.00,Acu-Link.com,2013-02-23 23:30:00,
2013-02-23 14:45:00,6.3,-4.6,29.14,North,0,6.8,-999.0,60,-99.99,,,0.00,Acu-Link.com,2013-02-23 23:45:00,
2013-02-23 15:00:00,6.6,-4.3,29.13,North,0,5.3,-999.0,60,-99.99,,,0.00,Acu-Link.com,2013-02-24 00:00:00,
2013-02-23 15:15:00,6.4,-4.1,29.14,North,0,4.2,-999.0,61,-99.99,,,0.00,Acu-Link.com,2013-02-24 00:15:00,
2013-02-23 15:31:00,6.3,-4.2,29.13,NNE,22,6.8,-999.0,61,-99.99,,,0.00,Acu-Link.com,2013-02-24 00:31:00,
2013-02-23 15:46:00,6.4,-3.8,29.12,NNW,337,9.4,-999.0,62,-99.99,,,0.00,Acu-Link.com,2013-02-24 00:46:00,
2013-02-23 16:01:00,6.6,-4.0,29.12,NNE,22,6.3,-999.0,61,-99.99,,,0.00,Acu-Link.com,2013-02-24 01:01:00,
2013-02-23 16:16:00,6.1,-4.1,29.13,North,0,5.8,-999.0,62,-99.99,,,0.00,Acu-Link.com,2013-02-24 01:16:00,
2013-02-23 16:32:00,5.9,-4.3,29.12,North,0,5.3,-999.0,62,-99.99,,,0.00,Acu-Link.com,2013-02-24 01:32:00,
2013-02-23 16:48:00,5.7,-4.1,29.13,North,0,5.8,-999.0,63,-99.99,,,0.00,Acu-Link.com,2013-02-24 01:48:00,
2013-02-23 17:04:00,5.4,-4.4,29.11,North,0,6.8,-999.0,63,-99.99,,,0.00,Acu-Link.com,2013-02-24 02:04:00,
2013-02-23 17:19:00,5.0,-4.8,29.12,NNE,22,7.3,-999.0,63,-99.99,,,0.00,Acu-Link.com,2013-02-24 02:19:00,
2013-02-23 17:35:00,4.3,-4.8,29.12,North,0,5.3,-999.0,65,-99.99,,,0.00,Acu-Link.com,2013-02-24 02:35:00,
2013-02-23 17:50:00,3.9,-4.9,29.11,North,0,4.7,-999.0,66,-99.99,,,0.00,Acu-Link.com,2013-02-24 02:50:00,
2013-02-23 18:05:00,3.6,-5.2,29.10,North,0,4.7,-999.0,66,-99.99,,,0.00,Acu-Link.com,2013-02-24 03:05:00,
2013-02-23 18:20:00,3.2,-5.2,29.11,North,0,3.7,-999.0,67,-99.99,,,0.00,Acu-Link.com,2013-02-24 03:20:00,
2013-02-23 18:35:00,3.0,-5.4,29.11,North,0,4.7,-999.0,67,-99.99,,,0.00,Acu-Link.com,2013-02-24 03:35:00,
2013-02-23 18:51:00,2.8,-5.3,29.11,North,0,4.2,-999.0,68,-99.99,,,0.00,Acu-Link.com,2013-02-24 03:51:00,
2013-02-23 19:06:00,2.7,-5.4,29.11,North,0,4.7,-999.0,68,-99.99,,,0.00,Acu-Link.com,2013-02-24 04:06:00,
2013-02-23 19:21:00,2.3,-5.5,29.11,North,0,5.8,-999.0,69,-99.99,,,0.00,Acu-Link.com,2013-02-24 04:21:00,
2013-02-23 19:37:00,2.1,-5.7,29.11,North,0,3.7,-999.0,69,-99.99,,,0.00,Acu-Link.com,2013-02-24 04:37:00,
2013-02-23 19:52:00,1.9,-5.9,29.11,North,0,4.2,-999.0,69,-99.99,,,0.00,Acu-Link.com,2013-02-24 04:52:00,
2013-02-23 20:07:00,1.6,-5.9,29.11,North,0,4.7,-999.0,70,-99.99,,,0.00,Acu-Link.com,2013-02-24 05:07:00,
2013-02-23 20:22:00,1.2,-6.3,29.11,North,0,3.7,-999.0,70,-99.99,,,0.00,Acu-Link.com,2013-02-24 05:22:00,
2013-02-23 20:37:00,0.9,-6.6,29.11,North,0,3.2,-999.0,70,-99.99,,,0.00,Acu-Link.com,2013-02-24 05:37:00,
2013-02-23 20:53:00,0.5,-6.9,29.12,North,0,4.7,-999.0,70,-99.99,,,0.00,Acu-Link.com,2013-02-24 05:53:00,
2013-02-23 21:08:00,0.5,-6.9,29.12,North,0,5.3,-999.0,70,-99.99,,,0.00,Acu-Link.com,2013-02-24 06:08:00,
2013-02-23 21:23:00,0.3,-7.1,29.12,North,0,5.3,-999.0,70,-99.99,,,0.00,Acu-Link.com,2013-02-24 06:23:00,
2013-02-23 21:39:00,0.1,-7.3,29.13,North,0,4.2,-999.0,70,-99.99,,,0.00,Acu-Link.com,2013-02-24 06:39:00,
2013-02-23 21:54:00,-0.2,-7.3,29.12,North,0,4.2,-999.0,71,-99.99,,,0.00,Acu-Link.com,2013-02-24 06:54:00,
2013-02-23 22:09:00,0.0,-7.1,29.12,North,0,5.3,-999.0,71,-99.99,,,0.00,Acu-Link.com,2013-02-24 07:09:00,
2013-02-23 22:24:00,-0.2,-7.3,29.13,North,0,4.7,-999.0,71,-99.99,,,0.00,Acu-Link.com,2013-02-24 07:24:00,
2013-02-23 22:40:00,-0.8,-7.6,29.13,North,0,3.7,-999.0,72,-99.99,,,0.00,Acu-Link.com,2013-02-24 07:40:00,
2013-02-23 22:55:00,-0.9,-7.7,29.14,North,0,2.7,-999.0,72,-99.99,,,0.00,Acu-Link.com,2013-02-24 07:55:00,
2013-02-23 23:10:00,-2.0,-8.8,29.14,North,0,2.2,-999.0,72,-99.99,,,0.00,Acu-Link.com,2013-02-24 08:10:00,
2013-02-23 23:25:00,-3.3,-9.5,29.14,North,0,0.0,-999.0,74,-99.99,,,0.00,Acu-Link.com,2013-02-24 08:25:00,
2013-02-23 23:41:00,-5.3,-10.6,29.15,North,0,2.2,-999.0,77,-99.99,,,0.00,Acu-Link.com,2013-02-24 08:41:00,
2013-02-23 23:56:00,-7.4,-11.9,29.15,North,0,0.0,-999.0,80,-99.99,,,0.00,Acu-Link.com,2013-02-24 08:56:00,